Little London, Ohio
Current Conditions -  °F | °C
As of 3:02 AM on Tuesday 21 Oct 2014 (Local Time) from KMFD Reporting Station
Haze Haze  
Wind Chill: 51°   Ceiling: 700
Heat Index: 51°   Visibility: 4mi
Dew Point: 50°   Wind: 0mph
Humidity: 96%   Direction: NA
Pressure: 29.87"   Gusts: NA
Location:  40.8848°N, 82.6515°W
Report Text: KMFD 210702Z AUTO 00000KT 4SM BR BKN007 OVC014 11/10 A2987 RMK AO2 CIG 004V010 T01060100
Loading
Personal Weather Stations






























Interactive Weather Map
Tropical Storm Tracking
New forecast layout! Learn more

10-Day Weather Forecast

Advertisements
Track Severe Weather on mobile